sensor_id;sensor_type;location;lat;lon;timestamp;temperature;humidity
12853;DHT22;6495;51.808;7.478;2024-01-25T00:01:36;8.90;99.90
12853;DHT22;6495;51.808;7.478;2024-01-25T00:04:50;8.90;99.90
12853;DHT22;6495;51.808;7.478;2024-01-25T00:07:55;8.90;99.90
12853;DHT22;6495;51.808;7.478;2024-01-25T00:11:06;8.90;99.90
12853;DHT22;6495;51.808;7.478;2024-01-25T00:34:57;8.80;99.90
12853;DHT22;6495;51.808;7.478;2024-01-25T00:38:00;8.80;99.90
12853;DHT22;6495;51.808;7.478;2024-01-25T00:51:47;8.70;99.90
12853;DHT22;6495;51.808;7.478;2024-01-25T00:55:17;8.70;99.90
12853;DHT22;6495;51.808;7.478;2024-01-25T00:58:11;8.70;99.90
12853;DHT22;6495;51.808;7.478;2024-01-25T01:01:06;8.70;99.90
12853;DHT22;6495;51.808;7.478;2024-01-25T01:04:02;8.60;99.90
12853;DHT22;6495;51.808;7.478;2024-01-25T01:07:22;8.70;99.90
12853;DHT22;6495;51.808;7.478;2024-01-25T01:10:16;8.60;99.90
12853;DHT22;6495;51.808;7.478;2024-01-25T01:13:08;8.60;99.90
12853;DHT22;6495;51.808;7.478;2024-01-25T01:15:46;8.60;99.90
12853;DHT22;6495;51.808;7.478;2024-01-25T01:18:53;8.60;99.90
12853;DHT22;6495;51.808;7.478;2024-01-25T01:21:45;8.60;99.90
12853;DHT22;6495;51.808;7.478;2024-01-25T01:25:04;8.60;99.90
12853;DHT22;6495;51.808;7.478;2024-01-25T01:32:19;8.50;99.90
12853;DHT22;6495;51.808;7.478;2024-01-25T01:35:13;8.50;99.90
12853;DHT22;6495;51.808;7.478;2024-01-25T01:38:14;8.50;99.90
12853;DHT22;6495;51.808;7.478;2024-01-25T01:41:34;8.50;99.90
12853;DHT22;6495;51.808;7.478;2024-01-25T01:44:48;8.50;99.90
12853;DHT22;6495;51.808;7.478;2024-01-25T01:50:33;8.40;99.90
12853;DHT22;6495;51.808;7.478;2024-01-25T01:53:44;8.40;99.90
12853;DHT22;6495;51.808;7.478;2024-01-25T01:57:09;8.40;99.90
12853;DHT22;6495;51.808;7.478;2024-01-25T02:03:03;8.40;99.90
12853;DHT22;6495;51.808;7.478;2024-01-25T02:05:49;8.30;99.90
12853;DHT22;6495;51.808;7.478;2024-01-25T02:08:44;8.30;99.90
12853;DHT22;6495;51.808;7.478;2024-01-25T02:12:00;8.30;99.90
12853;DHT22;6495;51.808;7.478;2024-01-25T02:15:05;8.30;99.90
12853;DHT22;6495;51.808;7.478;2024-01-25T02:18:03;8.20;99.90
12853;DHT22;6495;51.808;7.478;2024-01-25T02:20:52;8.20;99.90
12853;DHT22;6495;51.808;7.478;2024-01-25T02:23:41;8.20;99.90
12853;DHT22;6495;51.808;7.478;2024-01-25T02:26:22;8.20;99.90
12853;DHT22;6495;51.808;7.478;2024-01-25T02:29:21;8.20;99.90
12853;DHT22;6495;51.808;7.478;2024-01-25T02:31:52;8.10;99.90
12853;DHT22;6495;51.808;7.478;2024-01-25T02:34:37;8.10;99.90
12853;DHT22;6495;51.808;7.478;2024-01-25T02:37:18;8.10;99.90
12853;DHT22;6495;51.808;7.478;2024-01-25T02:40:23;8.10;99.90
12853;DHT22;6495;51.808;7.478;2024-01-25T02:43:16;8.10;99.90
12853;DHT22;6495;51.808;7.478;2024-01-25T02:46:00;8.00;99.90
12853;DHT22;6495;51.808;7.478;2024-01-25T02:48:41;8.00;99.90
12853;DHT22;6495;51.808;7.478;2024-01-25T02:51:22;8.00;99.90
12853;DHT22;6495;51.808;7.478;2024-01-25T02:54:01;8.00;99.90
12853;DHT22;6495;51.808;7.478;2024-01-25T02:56:39;7.90;99.90
12853;DHT22;6495;51.808;7.478;2024-01-25T02:59:14;7.90;99.90
12853;DHT22;6495;51.808;7.478;2024-01-25T03:02:03;7.90;99.90
12853;DHT22;6495;51.808;7.478;2024-01-25T03:04:35;7.90;99.90
12853;DHT22;6495;51.808;7.478;2024-01-25T03:07:24;7.90;99.90
12853;DHT22;6495;51.808;7.478;2024-01-25T03:09:59;7.90;99.90
12853;DHT22;6495;51.808;7.478;2024-01-25T03:12:32;7.80;99.90
12853;DHT22;6495;51.808;7.478;2024-01-25T03:15:13;7.80;99.90
12853;DHT22;6495;51.808;7.478;2024-01-25T03:17:56;7.80;99.90
12853;DHT22;6495;51.808;7.478;2024-01-25T03:20:39;7.80;99.90
12853;DHT22;6495;51.808;7.478;2024-01-25T03:23:26;7.80;99.90
12853;DHT22;6495;51.808;7.478;2024-01-25T03:26:03;7.70;99.90
12853;DHT22;6495;51.808;7.478;2024-01-25T03:28:39;7.70;99.90
12853;DHT22;6495;51.808;7.478;2024-01-25T03:31:08;7.70;99.90
12853;DHT22;6495;51.808;7.478;2024-01-25T03:33:40;7.70;99.90
12853;DHT22;6495;51.808;7.478;2024-01-25T03:36:09;7.60;99.90
12853;DHT22;6495;51.808;7.478;2024-01-25T03:39:00;7.70;99.90
12853;DHT22;6495;51.808;7.478;2024-01-25T03:41:32;7.60;99.90
12853;DHT22;6495;51.808;7.478;2024-01-25T03:44:05;7.60;99.90
12853;DHT22;6495;51.808;7.478;2024-01-25T03:46:35;7.60;99.90
12853;DHT22;6495;51.808;7.478;2024-01-25T03:49:25;7.60;99.90
12853;DHT22;6495;51.808;7.478;2024-01-25T03:51:53;7.50;99.90
12853;DHT22;6495;51.808;7.478;2024-01-25T03:54:22;7.50;99.90
12853;DHT22;6495;51.808;7.478;2024-01-25T03:57:12;7.50;99.90
12853;DHT22;6495;51.808;7.478;2024-01-25T03:59:52;7.50;99.90
12853;DHT22;6495;51.808;7.478;2024-01-25T04:02:28;7.50;99.90
12853;DHT22;6495;51.808;7.478;2024-01-25T04:05:01;7.40;99.90
12853;DHT22;6495;51.808;7.478;2024-01-25T04:07:32;7.40;99.90
12853;DHT22;6495;51.808;7.478;2024-01-25T04:10:03;7.40;99.90
12853;DHT22;6495;51.808;7.478;2024-01-25T04:12:36;7.40;99.90
12853;DHT22;6495;51.808;7.478;2024-01-25T04:15:12;7.40;99.90
12853;DHT22;6495;51.808;7.478;2024-01-25T04:17:46;7.30;99.90
12853;DHT22;6495;51.808;7.478;2024-01-25T04:20:15;7.30;99.90
12853;DHT22;6495;51.808;7.478;2024-01-25T04:22:59;7.30;99.90
12853;DHT22;6495;51.808;7.478;2024-01-25T04:25:42;7.30;99.90
12853;DHT22;6495;51.808;7.478;2024-01-25T04:28:14;7.20;99.90
12853;DHT22;6495;51.808;7.478;2024-01-25T04:30:50;7.20;99.90
12853;DHT22;6495;51.808;7.478;2024-01-25T04:33:21;7.20;99.90
12853;DHT22;6495;51.808;7.478;2024-01-25T04:35:50;7.20;99.90
12853;DHT22;6495;51.808;7.478;2024-01-25T04:38:28;7.20;99.90
12853;DHT22;6495;51.808;7.478;2024-01-25T04:40:59;7.20;99.90
12853;DHT22;6495;51.808;7.478;2024-01-25T04:43:33;7.20;99.90
12853;DHT22;6495;51.808;7.478;2024-01-25T04:46:05;7.10;99.90
12853;DHT22;6495;51.808;7.478;2024-01-25T04:48:37;7.10;99.90
12853;DHT22;6495;51.808;7.478;2024-01-25T04:51:07;7.10;99.90
12853;DHT22;6495;51.808;7.478;2024-01-25T04:53:38;7.10;99.90
12853;DHT22;6495;51.808;7.478;2024-01-25T04:56:12;7.10;99.90
12853;DHT22;6495;51.808;7.478;2024-01-25T04:58:50;7.10;99.90
12853;DHT22;6495;51.808;7.478;2024-01-25T05:01:29;7.00;99.90
12853;DHT22;6495;51.808;7.478;2024-01-25T05:03:58;7.00;99.90
12853;DHT22;6495;51.808;7.478;2024-01-25T05:06:28;7.00;99.90
12853;DHT22;6495;51.808;7.478;2024-01-25T05:09:06;6.90;99.90
12853;DHT22;6495;51.808;7.478;2024-01-25T05:11:38;6.90;99.90
12853;DHT22;6495;51.808;7.478;2024-01-25T05:14:07;6.90;99.90
12853;DHT22;6495;51.808;7.478;2024-01-25T05:16:37;6.90;99.90
12853;DHT22;6495;51.808;7.478;2024-01-25T05:19:06;6.90;99.90
12853;DHT22;6495;51.808;7.478;2024-01-25T05:21:45;6.90;99.90
12853;DHT22;6495;51.808;7.478;2024-01-25T05:24:14;6.90;99.90
12853;DHT22;6495;51.808;7.478;2024-01-25T05:26:42;6.80;99.90
12853;DHT22;6495;51.808;7.478;2024-01-25T05:29:14;6.90;99.90
12853;DHT22;6495;51.808;7.478;2024-01-25T05:31:46;6.90;99.90
12853;DHT22;6495;51.808;7.478;2024-01-25T05:34:16;6.80;99.90
12853;DHT22;6495;51.808;7.478;2024-01-25T05:36:45;6.80;99.90
12853;DHT22;6495;51.808;7.478;2024-01-25T05:39:15;6.80;99.90
12853;DHT22;6495;51.808;7.478;2024-01-25T05:41:55;6.80;99.90
12853;DHT22;6495;51.808;7.478;2024-01-25T05:44:23;6.80;99.90
12853;DHT22;6495;51.808;7.478;2024-01-25T05:46:56;6.80;99.90
12853;DHT22;6495;51.808;7.478;2024-01-25T05:49:24;6.70;99.90
12853;DHT22;6495;51.808;7.478;2024-01-25T05:51:53;6.70;99.90
12853;DHT22;6495;51.808;7.478;2024-01-25T05:54:22;6.70;99.90
12853;DHT22;6495;51.808;7.478;2024-01-25T05:56:51;6.70;99.90
12853;DHT22;6495;51.808;7.478;2024-01-25T05:59:19;6.70;99.90
12853;DHT22;6495;51.808;7.478;2024-01-25T06:01:51;6.60;99.90
12853;DHT22;6495;51.808;7.478;2024-01-25T06:04:21;6.60;99.90
12853;DHT22;6495;51.808;7.478;2024-01-25T06:06:50;6.60;99.90
12853;DHT22;6495;51.808;7.478;2024-01-25T06:09:21;6.60;99.90
12853;DHT22;6495;51.808;7.478;2024-01-25T06:11:51;6.50;99.90
12853;DHT22;6495;51.808;7.478;2024-01-25T06:14:20;6.50;99.90
12853;DHT22;6495;51.808;7.478;2024-01-25T06:16:48;6.50;99.90
12853;DHT22;6495;51.808;7.478;2024-01-25T06:19:18;6.40;99.90
12853;DHT22;6495;51.808;7.478;2024-01-25T06:21:49;6.40;99.90
12853;DHT22;6495;51.808;7.478;2024-01-25T06:24:18;6.40;99.90
12853;DHT22;6495;51.808;7.478;2024-01-25T06:26:46;6.30;99.90
12853;DHT22;6495;51.808;7.478;2024-01-25T06:29:18;6.30;99.90
12853;DHT22;6495;51.808;7.478;2024-01-25T06:31:49;6.30;99.90
12853;DHT22;6495;51.808;7.478;2024-01-25T06:34:18;6.30;99.90
12853;DHT22;6495;51.808;7.478;2024-01-25T06:36:48;6.30;99.90
12853;DHT22;6495;51.808;7.478;2024-01-25T06:39:17;6.30;99.90
12853;DHT22;6495;51.808;7.478;2024-01-25T06:41:45;6.30;99.90
12853;DHT22;6495;51.808;7.478;2024-01-25T06:44:16;6.20;99.90
12853;DHT22;6495;51.808;7.478;2024-01-25T06:46:44;6.20;99.90
12853;DHT22;6495;51.808;7.478;2024-01-25T06:49:13;6.20;99.90
12853;DHT22;6495;51.808;7.478;2024-01-25T06:51:42;6.20;99.90
12853;DHT22;6495;51.808;7.478;2024-01-25T06:54:12;6.20;99.90
12853;DHT22;6495;51.808;7.478;2024-01-25T06:56:41;6.20;99.90
12853;DHT22;6495;51.808;7.478;2024-01-25T06:59:10;6.10;99.90
12853;DHT22;6495;51.808;7.478;2024-01-25T07:01:39;6.10;99.90
12853;DHT22;6495;51.808;7.478;2024-01-25T07:04:10;6.10;99.90
12853;DHT22;6495;51.808;7.478;2024-01-25T07:06:39;6.10;99.90
12853;DHT22;6495;51.808;7.478;2024-01-25T07:09:08;6.10;99.90
12853;DHT22;6495;51.808;7.478;2024-01-25T07:11:39;6.00;99.90
12853;DHT22;6495;51.808;7.478;2024-01-25T07:14:08;6.00;99.90
12853;DHT22;6495;51.808;7.478;2024-01-25T07:16:36;6.00;99.90
12853;DHT22;6495;51.808;7.478;2024-01-25T07:19:07;6.00;99.90
12853;DHT22;6495;51.808;7.478;2024-01-25T07:21:39;6.00;99.90
12853;DHT22;6495;51.808;7.478;2024-01-25T07:24:07;6.00;99.90
12853;DHT22;6495;51.808;7.478;2024-01-25T07:26:36;5.90;99.90
12853;DHT22;6495;51.808;7.478;2024-01-25T07:29:06;5.90;99.90
12853;DHT22;6495;51.808;7.478;2024-01-25T07:31:35;5.90;99.90
12853;DHT22;6495;51.808;7.478;2024-01-25T07:34:03;5.90;99.90
12853;DHT22;6495;51.808;7.478;2024-01-25T07:36:40;5.90;99.90
12853;DHT22;6495;51.808;7.478;2024-01-25T07:39:13;5.90;99.90
12853;DHT22;6495;51.808;7.478;2024-01-25T07:41:41;5.90;99.90
12853;DHT22;6495;51.808;7.478;2024-01-25T07:44:13;5.90;99.90
12853;DHT22;6495;51.808;7.478;2024-01-25T07:46:42;5.90;99.90
12853;DHT22;6495;51.808;7.478;2024-01-25T07:49:11;5.90;99.90
12853;DHT22;6495;51.808;7.478;2024-01-25T07:51:40;5.90;99.90
12853;DHT22;6495;51.808;7.478;2024-01-25T07:54:15;5.90;99.90
12853;DHT22;6495;51.808;7.478;2024-01-25T07:56:44;5.90;99.90
12853;DHT22;6495;51.808;7.478;2024-01-25T07:59:14;5.90;99.90
12853;DHT22;6495;51.808;7.478;2024-01-25T08:01:42;5.90;99.90
12853;DHT22;6495;51.808;7.478;2024-01-25T08:04:11;5.90;99.90
12853;DHT22;6495;51.808;7.478;2024-01-25T08:06:44;5.90;99.90
12853;DHT22;6495;51.808;7.478;2024-01-25T08:09:16;5.90;99.90
12853;DHT22;6495;51.808;7.478;2024-01-25T08:11:45;5.90;99.90
12853;DHT22;6495;51.808;7.478;2024-01-25T08:14:15;5.90;99.90
12853;DHT22;6495;51.808;7.478;2024-01-25T08:16:44;5.90;99.90
12853;DHT22;6495;51.808;7.478;2024-01-25T08:19:13;5.90;99.90
12853;DHT22;6495;51.808;7.478;2024-01-25T08:21:42;6.00;99.90
12853;DHT22;6495;51.808;7.478;2024-01-25T08:24:11;6.00;99.90
12853;DHT22;6495;51.808;7.478;2024-01-25T08:26:40;6.00;99.90
12853;DHT22;6495;51.808;7.478;2024-01-25T08:29:09;6.00;99.90
12853;DHT22;6495;51.808;7.478;2024-01-25T08:31:39;6.00;99.90
12853;DHT22;6495;51.808;7.478;2024-01-25T08:34:11;6.00;99.90
12853;DHT22;6495;51.808;7.478;2024-01-25T08:36:43;6.00;99.90
12853;DHT22;6495;51.808;7.478;2024-01-25T08:39:13;6.10;99.90
12853;DHT22;6495;51.808;7.478;2024-01-25T08:41:42;6.10;99.90
12853;DHT22;6495;51.808;7.478;2024-01-25T08:44:18;6.10;99.90
12853;DHT22;6495;51.808;7.478;2024-01-25T08:46:48;6.10;99.90
12853;DHT22;6495;51.808;7.478;2024-01-25T08:49:17;6.10;99.90
12853;DHT22;6495;51.808;7.478;2024-01-25T08:51:46;6.10;99.90
12853;DHT22;6495;51.808;7.478;2024-01-25T08:54:14;6.10;99.90
12853;DHT22;6495;51.808;7.478;2024-01-25T08:56:43;6.10;99.90
12853;DHT22;6495;51.808;7.478;2024-01-25T08:59:17;6.10;99.90
12853;DHT22;6495;51.808;7.478;2024-01-25T09:01:58;6.10;99.90
12853;DHT22;6495;51.808;7.478;2024-01-25T09:04:30;6.20;99.90
12853;DHT22;6495;51.808;7.478;2024-01-25T09:06:59;6.10;99.90
12853;DHT22;6495;51.808;7.478;2024-01-25T09:09:32;6.20;99.90
12853;DHT22;6495;51.808;7.478;2024-01-25T09:12:02;6.20;99.90
12853;DHT22;6495;51.808;7.478;2024-01-25T09:14:32;6.20;99.90
12853;DHT22;6495;51.808;7.478;2024-01-25T09:17:02;6.20;99.90
12853;DHT22;6495;51.808;7.478;2024-01-25T09:19:31;6.30;99.90
12853;DHT22;6495;51.808;7.478;2024-01-25T09:22:00;6.30;99.90
12853;DHT22;6495;51.808;7.478;2024-01-25T09:24:32;6.30;99.90
12853;DHT22;6495;51.808;7.478;2024-01-25T09:27:04;6.30;99.90
12853;DHT22;6495;51.808;7.478;2024-01-25T09:29:50;6.30;99.90
12853;DHT22;6495;51.808;7.478;2024-01-25T09:32:37;6.40;99.90
12853;DHT22;6495;51.808;7.478;2024-01-25T09:35:34;6.40;99.90
12853;DHT22;6495;51.808;7.478;2024-01-25T09:38:14;6.40;99.90
12853;DHT22;6495;51.808;7.478;2024-01-25T09:41:29;6.50;99.90
12853;DHT22;6495;51.808;7.478;2024-01-25T09:44:03;6.50;99.90
12853;DHT22;6495;51.808;7.478;2024-01-25T09:46:37;6.50;99.90
12853;DHT22;6495;51.808;7.478;2024-01-25T09:49:10;6.60;99.90
12853;DHT22;6495;51.808;7.478;2024-01-25T09:51:41;6.60;99.90
12853;DHT22;6495;51.808;7.478;2024-01-25T09:54:13;6.60;99.90
12853;DHT22;6495;51.808;7.478;2024-01-25T09:56:43;6.70;99.90
12853;DHT22;6495;51.808;7.478;2024-01-25T09:59:13;6.70;99.90
12853;DHT22;6495;51.808;7.478;2024-01-25T10:01:44;6.80;99.90
12853;DHT22;6495;51.808;7.478;2024-01-25T10:04:17;6.80;99.90
12853;DHT22;6495;51.808;7.478;2024-01-25T10:06:49;6.80;99.90
12853;DHT22;6495;51.808;7.478;2024-01-25T10:09:18;6.90;99.90
12853;DHT22;6495;51.808;7.478;2024-01-25T10:11:49;6.90;99.90
12853;DHT22;6495;51.808;7.478;2024-01-25T10:14:36;7.00;99.90
12853;DHT22;6495;51.808;7.478;2024-01-25T10:17:04;7.00;99.90
12853;DHT22;6495;51.808;7.478;2024-01-25T10:19:34;7.10;99.90
12853;DHT22;6495;51.808;7.478;2024-01-25T10:22:07;7.10;99.90
12853;DHT22;6495;51.808;7.478;2024-01-25T10:24:47;7.10;99.90
12853;DHT22;6495;51.808;7.478;2024-01-25T10:27:17;7.10;99.90
12853;DHT22;6495;51.808;7.478;2024-01-25T10:29:46;7.20;99.90
12853;DHT22;6495;51.808;7.478;2024-01-25T10:32:15;7.20;99.90
12853;DHT22;6495;51.808;7.478;2024-01-25T10:34:46;7.20;99.90
12853;DHT22;6495;51.808;7.478;2024-01-25T10:37:18;7.30;99.90
12853;DHT22;6495;51.808;7.478;2024-01-25T10:39:49;7.30;99.90
12853;DHT22;6495;51.808;7.478;2024-01-25T10:42:25;7.30;99.90
12853;DHT22;6495;51.808;7.478;2024-01-25T10:44:54;7.40;99.90
12853;DHT22;6495;51.808;7.478;2024-01-25T10:47:23;7.40;99.90
12853;DHT22;6495;51.808;7.478;2024-01-25T10:49:56;7.40;99.90
12853;DHT22;6495;51.808;7.478;2024-01-25T10:52:26;7.50;99.90
12853;DHT22;6495;51.808;7.478;2024-01-25T10:54:55;7.50;99.90
12853;DHT22;6495;51.808;7.478;2024-01-25T10:57:24;7.50;99.90
12853;DHT22;6495;51.808;7.478;2024-01-25T10:59:53;7.60;99.90
12853;DHT22;6495;51.808;7.478;2024-01-25T11:02:24;7.70;99.90
12853;DHT22;6495;51.808;7.478;2024-01-25T11:04:54;7.70;99.90
12853;DHT22;6495;51.808;7.478;2024-01-25T11:07:24;7.80;99.90
12853;DHT22;6495;51.808;7.478;2024-01-25T11:09:52;7.80;99.90
12853;DHT22;6495;51.808;7.478;2024-01-25T11:12:21;7.90;99.90
12853;DHT22;6495;51.808;7.478;2024-01-25T11:14:54;8.00;99.90
12853;DHT22;6495;51.808;7.478;2024-01-25T11:17:23;8.00;99.90
12853;DHT22;6495;51.808;7.478;2024-01-25T11:19:52;8.10;99.90
12853;DHT22;6495;51.808;7.478;2024-01-25T11:22:34;8.10;99.90
12853;DHT22;6495;51.808;7.478;2024-01-25T11:25:12;8.20;99.90
12853;DHT22;6495;51.808;7.478;2024-01-25T11:27:44;8.20;99.90
12853;DHT22;6495;51.808;7.478;2024-01-25T11:30:13;8.20;99.90
12853;DHT22;6495;51.808;7.478;2024-01-25T11:32:42;8.30;99.90
12853;DHT22;6495;51.808;7.478;2024-01-25T11:35:11;8.30;99.90
12853;DHT22;6495;51.808;7.478;2024-01-25T11:37:45;8.30;99.90
12853;DHT22;6495;51.808;7.478;2024-01-25T11:40:15;8.30;99.90
12853;DHT22;6495;51.808;7.478;2024-01-25T11:42:45;8.30;99.90
12853;DHT22;6495;51.808;7.478;2024-01-25T11:45:18;8.30;99.90
12853;DHT22;6495;51.808;7.478;2024-01-25T11:47:46;8.30;99.90
12853;DHT22;6495;51.808;7.478;2024-01-25T11:50:17;8.40;99.90
12853;DHT22;6495;51.808;7.478;2024-01-25T11:52:50;8.40;99.90
12853;DHT22;6495;51.808;7.478;2024-01-25T11:55:19;8.40;99.90
12853;DHT22;6495;51.808;7.478;2024-01-25T11:57:48;8.50;99.90
12853;DHT22;6495;51.808;7.478;2024-01-25T12:00:18;8.50;99.90
12853;DHT22;6495;51.808;7.478;2024-01-25T12:02:47;8.60;99.90
12853;DHT22;6495;51.808;7.478;2024-01-25T12:05:15;8.60;99.90
12853;DHT22;6495;51.808;7.478;2024-01-25T12:07:44;8.70;99.90
12853;DHT22;6495;51.808;7.478;2024-01-25T12:10:17;8.70;99.90
12853;DHT22;6495;51.808;7.478;2024-01-25T12:12:48;8.70;99.90
12853;DHT22;6495;51.808;7.478;2024-01-25T12:15:17;8.80;99.90
12853;DHT22;6495;51.808;7.478;2024-01-25T12:17:46;8.80;99.90
12853;DHT22;6495;51.808;7.478;2024-01-25T12:20:16;8.90;99.90
12853;DHT22;6495;51.808;7.478;2024-01-25T12:22:48;8.90;99.90
12853;DHT22;6495;51.808;7.478;2024-01-25T12:25:18;8.90;99.90
12853;DHT22;6495;51.808;7.478;2024-01-25T12:27:47;9.00;99.90
12853;DHT22;6495;51.808;7.478;2024-01-25T12:30:17;9.00;99.90
12853;DHT22;6495;51.808;7.478;2024-01-25T12:32:48;9.00;99.90
12853;DHT22;6495;51.808;7.478;2024-01-25T12:35:17;9.00;99.90
12853;DHT22;6495;51.808;7.478;2024-01-25T12:37:46;9.10;99.90
12853;DHT22;6495;51.808;7.478;2024-01-25T12:40:14;9.10;99.90
12853;DHT22;6495;51.808;7.478;2024-01-25T12:42:45;9.10;99.90
12853;DHT22;6495;51.808;7.478;2024-01-25T12:45:13;9.10;99.90
12853;DHT22;6495;51.808;7.478;2024-01-25T12:47:42;9.00;99.90
12853;DHT22;6495;51.808;7.478;2024-01-25T12:50:11;9.00;99.90
12853;DHT22;6495;51.808;7.478;2024-01-25T12:52:40;9.00;99.90
12853;DHT22;6495;51.808;7.478;2024-01-25T12:55:09;9.00;99.90
12853;DHT22;6495;51.808;7.478;2024-01-25T12:57:39;9.10;99.90
12853;DHT22;6495;51.808;7.478;2024-01-25T13:00:10;9.10;99.90
12853;DHT22;6495;51.808;7.478;2024-01-25T13:02:39;9.10;99.90
12853;DHT22;6495;51.808;7.478;2024-01-25T13:05:08;9.10;99.90
12853;DHT22;6495;51.808;7.478;2024-01-25T13:07:37;9.10;99.90
12853;DHT22;6495;51.808;7.478;2024-01-25T13:10:08;9.10;99.90
12853;DHT22;6495;51.808;7.478;2024-01-25T13:12:38;9.10;99.90
12853;DHT22;6495;51.808;7.478;2024-01-25T13:15:09;9.10;99.90
12853;DHT22;6495;51.808;7.478;2024-01-25T13:17:38;9.10;99.90
12853;DHT22;6495;51.808;7.478;2024-01-25T13:20:07;9.10;99.90
12853;DHT22;6495;51.808;7.478;2024-01-25T13:22:36;9.10;99.90
12853;DHT22;6495;51.808;7.478;2024-01-25T13:25:05;9.10;99.90
12853;DHT22;6495;51.808;7.478;2024-01-25T13:27:34;9.10;99.90
12853;DHT22;6495;51.808;7.478;2024-01-25T13:30:03;9.10;99.90
12853;DHT22;6495;51.808;7.478;2024-01-25T13:32:33;9.10;99.90
12853;DHT22;6495;51.808;7.478;2024-01-25T13:35:03;9.20;99.90
12853;DHT22;6495;51.808;7.478;2024-01-25T13:37:32;9.20;99.90
12853;DHT22;6495;51.808;7.478;2024-01-25T13:40:01;9.20;99.90
12853;DHT22;6495;51.808;7.478;2024-01-25T13:42:31;9.20;99.90
12853;DHT22;6495;51.808;7.478;2024-01-25T13:45:01;9.20;99.90
12853;DHT22;6495;51.808;7.478;2024-01-25T13:47:29;9.20;99.90
12853;DHT22;6495;51.808;7.478;2024-01-25T13:50:00;9.20;99.90
12853;DHT22;6495;51.808;7.478;2024-01-25T13:52:28;9.20;99.90
12853;DHT22;6495;51.808;7.478;2024-01-25T13:54:57;9.10;99.90
12853;DHT22;6495;51.808;7.478;2024-01-25T13:57:25;9.10;99.90
12853;DHT22;6495;51.808;7.478;2024-01-25T13:59:54;9.10;99.90
12853;DHT22;6495;51.808;7.478;2024-01-25T14:02:22;9.10;99.90
12853;DHT22;6495;51.808;7.478;2024-01-25T14:04:51;9.10;99.90
12853;DHT22;6495;51.808;7.478;2024-01-25T14:07:21;9.10;99.90
12853;DHT22;6495;51.808;7.478;2024-01-25T14:09:50;9.10;99.90
12853;DHT22;6495;51.808;7.478;2024-01-25T14:12:20;9.10;99.90
12853;DHT22;6495;51.808;7.478;2024-01-25T14:14:49;9.10;99.90
12853;DHT22;6495;51.808;7.478;2024-01-25T14:17:19;9.20;99.90
12853;DHT22;6495;51.808;7.478;2024-01-25T14:19:48;9.20;99.90
12853;DHT22;6495;51.808;7.478;2024-01-25T14:22:17;9.20;99.90
12853;DHT22;6495;51.808;7.478;2024-01-25T14:24:59;9.20;99.90
12853;DHT22;6495;51.808;7.478;2024-01-25T14:27:28;9.20;99.90
12853;DHT22;6495;51.808;7.478;2024-01-25T14:29:57;9.20;99.90
12853;DHT22;6495;51.808;7.478;2024-01-25T14:32:27;9.20;99.90
12853;DHT22;6495;51.808;7.478;2024-01-25T14:34:56;9.20;99.90
12853;DHT22;6495;51.808;7.478;2024-01-25T14:37:25;9.20;99.90
12853;DHT22;6495;51.808;7.478;2024-01-25T14:39:53;9.10;99.90
12853;DHT22;6495;51.808;7.478;2024-01-25T14:42:44;9.10;99.90
12853;DHT22;6495;51.808;7.478;2024-01-25T14:45:12;9.10;99.90
12853;DHT22;6495;51.808;7.478;2024-01-25T14:47:41;9.10;99.90
12853;DHT22;6495;51.808;7.478;2024-01-25T14:50:10;9.10;99.90
12853;DHT22;6495;51.808;7.478;2024-01-25T14:52:39;9.10;99.90
12853;DHT22;6495;51.808;7.478;2024-01-25T14:55:08;9.10;99.90
12853;DHT22;6495;51.808;7.478;2024-01-25T14:57:37;9.10;99.90
12853;DHT22;6495;51.808;7.478;2024-01-25T15:00:33;9.10;99.90
12853;DHT22;6495;51.808;7.478;2024-01-25T15:03:05;9.10;99.90
12853;DHT22;6495;51.808;7.478;2024-01-25T15:05:34;9.10;99.90
12853;DHT22;6495;51.808;7.478;2024-01-25T15:08:03;9.10;99.90
12853;DHT22;6495;51.808;7.478;2024-01-25T15:10:32;9.10;99.90
12853;DHT22;6495;51.808;7.478;2024-01-25T15:13:01;9.00;99.90
12853;DHT22;6495;51.808;7.478;2024-01-25T15:15:30;9.00;99.90
12853;DHT22;6495;51.808;7.478;2024-01-25T15:18:00;9.00;99.90
12853;DHT22;6495;51.808;7.478;2024-01-25T15:20:31;9.00;99.90
12853;DHT22;6495;51.808;7.478;2024-01-25T15:23:03;8.90;99.90
12853;DHT22;6495;51.808;7.478;2024-01-25T15:25:31;8.90;99.90
12853;DHT22;6495;51.808;7.478;2024-01-25T15:28:00;8.90;99.90
12853;DHT22;6495;51.808;7.478;2024-01-25T15:30:29;8.80;99.90
12853;DHT22;6495;51.808;7.478;2024-01-25T15:32:57;8.80;99.90
12853;DHT22;6495;51.808;7.478;2024-01-25T15:35:31;8.80;99.90
12853;DHT22;6495;51.808;7.478;2024-01-25T15:38:00;8.70;99.90
12853;DHT22;6495;51.808;7.478;2024-01-25T15:40:32;8.70;99.90
12853;DHT22;6495;51.808;7.478;2024-01-25T15:43:01;8.70;99.90
12853;DHT22;6495;51.808;7.478;2024-01-25T15:45:34;8.60;99.90
12853;DHT22;6495;51.808;7.478;2024-01-25T15:48:08;8.60;99.90
12853;DHT22;6495;51.808;7.478;2024-01-25T15:50:45;8.60;99.90
12853;DHT22;6495;51.808;7.478;2024-01-25T15:53:23;8.50;99.90
12853;DHT22;6495;51.808;7.478;2024-01-25T15:55:57;8.50;99.90
12853;DHT22;6495;51.808;7.478;2024-01-25T15:58:34;8.40;99.90
12853;DHT22;6495;51.808;7.478;2024-01-25T16:01:03;8.40;99.90
12853;DHT22;6495;51.808;7.478;2024-01-25T16:03:34;8.40;99.90
12853;DHT22;6495;51.808;7.478;2024-01-25T16:06:05;8.40;99.90
12853;DHT22;6495;51.808;7.478;2024-01-25T16:08:36;8.40;99.90
12853;DHT22;6495;51.808;7.478;2024-01-25T16:11:05;8.30;99.90
12853;DHT22;6495;51.808;7.478;2024-01-25T16:13:35;8.30;99.90
12853;DHT22;6495;51.808;7.478;2024-01-25T16:16:04;8.30;99.90
12853;DHT22;6495;51.808;7.478;2024-01-25T16:18:39;8.30;99.90
12853;DHT22;6495;51.808;7.478;2024-01-25T16:21:09;8.20;99.90
12853;DHT22;6495;51.808;7.478;2024-01-25T16:23:38;8.20;99.90
12853;DHT22;6495;51.808;7.478;2024-01-25T16:26:06;8.20;99.90
12853;DHT22;6495;51.808;7.478;2024-01-25T16:28:40;8.10;99.90
12853;DHT22;6495;51.808;7.478;2024-01-25T16:31:09;8.10;99.90
12853;DHT22;6495;51.808;7.478;2024-01-25T16:33:38;8.10;99.90
12853;DHT22;6495;51.808;7.478;2024-01-25T16:36:07;8.10;99.90
12853;DHT22;6495;51.808;7.478;2024-01-25T16:38:37;8.10;99.90
12853;DHT22;6495;51.808;7.478;2024-01-25T16:41:07;8.10;99.90
12853;DHT22;6495;51.808;7.478;2024-01-25T16:43:36;8.10;99.90
12853;DHT22;6495;51.808;7.478;2024-01-25T16:46:05;8.10;99.90
12853;DHT22;6495;51.808;7.478;2024-01-25T16:48:33;8.10;99.90
12853;DHT22;6495;51.808;7.478;2024-01-25T16:51:02;8.00;99.90
12853;DHT22;6495;51.808;7.478;2024-01-25T16:53:32;8.00;99.90
12853;DHT22;6495;51.808;7.478;2024-01-25T16:56:01;8.00;99.90
12853;DHT22;6495;51.808;7.478;2024-01-25T16:58:31;8.00;99.90
12853;DHT22;6495;51.808;7.478;2024-01-25T17:01:03;8.10;99.90
12853;DHT22;6495;51.808;7.478;2024-01-25T17:03:33;8.10;99.90
12853;DHT22;6495;51.808;7.478;2024-01-25T17:06:04;8.00;99.90
12853;DHT22;6495;51.808;7.478;2024-01-25T17:08:36;8.10;99.90
12853;DHT22;6495;51.808;7.478;2024-01-25T17:11:08;8.10;99.90
12853;DHT22;6495;51.808;7.478;2024-01-25T17:13:38;8.00;99.90
12853;DHT22;6495;51.808;7.478;2024-01-25T17:16:07;8.00;99.90
12853;DHT22;6495;51.808;7.478;2024-01-25T17:18:35;8.00;99.90
12853;DHT22;6495;51.808;7.478;2024-01-25T17:21:04;8.00;99.90
12853;DHT22;6495;51.808;7.478;2024-01-25T17:23:33;8.00;99.90
12853;DHT22;6495;51.808;7.478;2024-01-25T17:26:03;8.00;99.90
12853;DHT22;6495;51.808;7.478;2024-01-25T17:28:32;8.00;99.90
12853;DHT22;6495;51.808;7.478;2024-01-25T17:31:01;8.00;99.90